Time;durP1;ratioP1;P1;durP2;ratioP2;P2;SDS_P1;SDS_P2;PMS_P1;PMS_P2;Temp;Humidity;BMP_temperature;BMP_pressure;BME280_temperature;BME280_humidity;BME280_pressure;Samples;Min_cycle;Max_cycle;Signal;HPM_P1;HPM_P2
2022/10/17 00:02:35;;;;;;;44.40;32.40;;;;;;;11.96;81.69;101127.88;2050933;86;31628;-67
2022/10/17 00:05:42;;;;;;;51.20;34.15;;;;;;;11.94;81.66;101116.31;2052650;86;34239;-67
2022/10/17 00:08:45;;;;;;;46.55;32.83;;;;;;;11.90;81.63;101121.44;2051251;86;29382;-67
2022/10/17 00:11:46;;;;;;;45.05;30.10;;;;;;;11.87;81.42;101117.53;2053983;86;28308;-67
2022/10/17 00:14:47;;;;;;;46.80;31.07;;;;;;;11.83;81.39;101117.25;2024610;87;28450;-67
2022/10/17 00:17:49;;;;;;;45.52;32.60;;;;;;;11.81;81.65;101110.61;2024011;86;32301;-67
2022/10/17 00:20:50;;;;;;;51.58;33.02;;;;;;;11.81;82.24;101118.66;2026732;87;33339;-69
2022/10/17 00:23:54;;;;;;;44.73;30.97;;;;;;;11.82;82.25;101115.05;2028364;87;29379;-70
2022/10/17 00:26:55;;;;;;;45.63;32.58;;;;;;;11.82;82.05;101114.16;2024794;87;27783;-70
2022/10/17 00:29:56;;;;;;;49.42;33.02;;;;;;;11.81;82.29;101121.35;2025537;86;29128;-70
2022/10/17 00:32:58;;;;;;;51.68;35.85;;;;;;;11.82;82.35;101124.44;2025839;87;31599;-70
2022/10/17 00:36:11;;;;;;;49.63;31.85;;;;;;;11.83;82.48;101135.55;2026831;87;33048;-71
2022/10/17 00:39:12;;;;;;;49.73;34.75;;;;;;;11.83;82.34;101133.35;2026856;87;29356;-69
2022/10/17 00:42:14;;;;;;;45.78;32.85;;;;;;;11.82;82.56;101120.41;2022142;87;27665;-69
2022/10/17 00:45:26;;;;;;;48.42;33.18;;;;;;;11.85;82.71;101118.91;2026406;86;29123;-71
2022/10/17 00:48:27;;;;;;;45.35;33.28;;;;;;;11.89;82.96;101125.51;2021165;87;31104;-70
2022/10/17 00:51:48;;;;;;;48.08;33.08;;;;;;;11.91;82.82;101135.27;2047535;86;34292;-69
2022/10/17 00:55:01;;;;;;;45.30;32.05;;;;;;;11.92;82.76;101142.36;2053997;86;30219;-70
2022/10/17 00:58:04;;;;;;;51.37;35.85;;;;;;;11.93;82.66;101144.59;2040203;86;27691;-70
2022/10/17 01:01:05;;;;;;;45.00;32.75;;;;;;;11.92;82.89;101139.67;2035884;86;28867;-70
2022/10/17 01:04:07;;;;;;;42.95;31.17;;;;;;;11.92;82.77;101141.02;2017886;87;31840;-70
2022/10/17 01:07:09;;;;;;;41.37;31.12;;;;;;;11.91;82.50;101143.77;2036422;85;33886;-70
2022/10/17 01:10:11;;;;;;;40.15;29.75;;;;;;;11.88;82.37;101137.19;2038228;86;29376;-68
2022/10/17 01:13:40;;;;;;;40.73;28.90;;;;;;;11.84;82.19;101138.64;2046657;86;27788;-69
2022/10/17 01:16:56;;;;;;;42.67;31.12;;;;;;;11.81;82.11;101133.88;2038939;86;28711;-70
2022/10/17 01:20:23;;;;;;;39.95;28.65;;;;;;;11.77;82.23;101133.14;1917126;91;31096;-68
2022/10/17 01:24:04;;;;;;;41.18;29.70;;;;;;;11.74;82.24;101130.58;1877012;93;34170;-70
2022/10/17 01:28:01;;;;;;;45.50;33.35;;;;;;;11.70;82.35;101137.00;1909367;92;30346;-70
2022/10/17 01:31:14;;;;;;;45.17;33.05;;;;;;;11.67;82.46;101135.33;1904608;91;27805;-70
2022/10/17 01:34:29;;;;;;;51.08;35.48;;;;;;;11.68;82.99;101140.22;1926353;92;28698;-70
2022/10/17 01:37:36;;;;;;;52.78;36.17;;;;;;;11.67;83.01;101143.38;1925628;92;31277;-70
2022/10/17 01:40:52;;;;;;;47.48;35.65;;;;;;;11.68;83.13;101146.92;1926201;91;33057;-71
2022/10/17 01:44:11;;;;;;;54.40;36.05;;;;;;;11.67;82.93;101146.52;1896912;92;29403;-70
2022/10/17 01:47:19;;;;;;;50.10;32.80;;;;;;;11.64;82.89;101147.53;1924142;92;27884;-70
2022/10/17 01:50:25;;;;;;;52.15;35.00;;;;;;;11.62;82.78;101148.53;1894938;93;28671;-71
2022/10/17 01:53:31;;;;;;;57.85;36.63;;;;;;;11.60;82.62;101141.01;1896524;90;31244;-67
2022/10/17 01:56:33;;;;;;;57.48;35.68;;;;;;;11.54;82.58;101141.66;1961295;86;33830;-71
2022/10/17 01:59:41;;;;;;;50.80;32.98;;;;;;;11.51;82.75;101140.91;2052008;86;29960;-70
2022/10/17 02:02:44;;;;;;;48.30;34.33;;;;;;;11.48;82.85;101131.19;2052211;86;27746;-67
2022/10/17 02:05:46;;;;;;;46.40;32.80;;;;;;;11.46;83.01;101120.09;2055356;86;29051;-69
2022/10/17 02:08:49;;;;;;;49.63;33.42;;;;;;;11.44;83.11;101124.19;2050812;86;31438;-70
2022/10/17 02:12:17;;;;;;;44.88;32.33;;;;;;;11.43;83.12;101114.39;2049940;86;33555;-67
2022/10/17 02:15:44;;;;;;;49.58;33.08;;;;;;;11.44;83.41;101118.82;2052762;86;29726;-68
2022/10/17 02:19:12;;;;;;;52.73;35.38;;;;;;;11.45;83.30;101119.67;2045676;86;27906;-68
2022/10/17 02:22:27;;;;;;;47.80;34.65;;;;;;;11.44;83.45;101117.48;2051677;86;28717;-66
2022/10/17 02:25:49;;;;;;;47.20;33.40;;;;;;;11.47;84.08;101123.17;2052224;86;32292;-69
2022/10/17 02:29:21;;;;;;;50.30;35.10;;;;;;;11.50;84.22;101126.60;2012332;87;34189;-67
2022/10/17 02:32:39;;;;;;;53.15;35.52;;;;;;;11.52;84.35;101127.42;2034127;86;29776;-68
2022/10/17 02:35:45;;;;;;;50.78;32.85;;;;;;;11.55;84.20;101135.35;1961589;89;27880;-68
2022/10/17 02:38:48;;;;;;;51.48;34.70;;;;;;;11.55;84.02;101140.72;1963681;89;29967;-68
2022/10/17 02:41:51;;;;;;;43.42;29.65;;;;;;;11.55;83.78;101151.45;1964275;89;31947;-68
2022/10/17 02:44:53;;;;;;;41.60;29.40;;;;;;;11.52;83.61;101152.91;1966366;89;33833;-67
2022/10/17 02:48:03;;;;;;;43.52;30.45;;;;;;;11.49;83.52;101157.09;1970902;89;29341;-66
2022/10/17 02:51:21;;;;;;;48.28;33.73;;;;;;;11.48;83.55;101166.52;1956830;89;28282;-68
2022/10/17 02:54:33;;;;;;;45.95;33.73;;;;;;;11.44;83.60;101163.09;1976521;88;29566;-68
2022/10/17 02:57:41;;;;;;;48.15;34.33;;;;;;;11.44;83.64;101163.54;1984087;88;31059;-70
2022/10/17 03:00:43;;;;;;;51.70;34.55;;;;;;;11.44;84.06;101155.49;1984395;87;33160;-69
2022/10/17 03:03:44;;;;;;;45.52;33.98;;;;;;;11.44;84.18;101160.86;1990637;87;30189;-69
2022/10/17 03:06:47;;;;;;;55.90;36.17;;;;;;;11.45;84.10;101180.05;1998496;88;27712;-69
2022/10/17 03:09:48;;;;;;;55.67;35.98;;;;;;;11.43;84.09;101179.23;1991487;88;29251;-69
2022/10/17 03:12:50;;;;;;;52.55;35.80;;;;;;;11.40;84.29;101174.87;2008947;86;31057;-69
2022/10/17 03:15:51;;;;;;;52.25;34.83;;;;;;;11.38;84.29;101180.76;2024527;87;34165;-67
2022/10/17 03:18:52;;;;;;;49.53;34.70;;;;;;;11.38;84.36;101180.31;2054261;86;29722;-69
2022/10/17 03:21:55;;;;;;;46.85;33.05;;;;;;;11.35;84.25;101172.83;2027626;87;27965;-69
2022/10/17 03:24:57;;;;;;;42.78;31.10;;;;;;;11.33;84.15;101176.92;2056935;86;28598;-69
2022/10/17 03:28:00;;;;;;;45.58;32.40;;;;;;;11.31;83.89;101171.22;2050364;86;31755;-67
2022/10/17 03:31:11;;;;;;;56.58;35.75;;;;;;;11.27;83.99;101162.39;2053927;86;33406;-68
2022/10/17 03:34:15;;;;;;;46.08;33.45;;;;;;;11.24;84.08;101163.88;2047087;86;29364;-70
2022/10/17 03:37:15;;;;;;;52.85;34.63;;;;;;;11.22;84.20;101173.30;2051865;86;28447;-69
2022/10/17 03:40:17;;;;;;;46.63;32.33;;;;;;;11.22;84.23;101179.15;2050320;86;29126;-70
2022/10/17 03:43:18;;;;;;;61.70;34.90;;;;;;;11.21;84.13;101182.77;2049984;86;32274;-71
2022/10/17 03:46:20;;;;;;;50.73;34.55;;;;;;;11.18;84.03;101185.08;2052473;86;32991;-70
2022/10/17 03:49:21;;;;;;;42.35;31.85;;;;;;;11.15;83.91;101188.34;2051325;86;29674;-69
2022/10/17 03:52:22;;;;;;;53.45;35.63;;;;;;;11.13;83.87;101194.23;2054753;86;28248;-68
2022/10/17 03:55:23;;;;;;;53.55;36.35;;;;;;;11.10;83.98;101196.09;2055068;86;29067;-69
2022/10/17 03:58:25;;;;;;;47.75;32.93;;;;;;;11.10;84.26;101194.75;2055092;86;32233;-69
2022/10/17 04:01:26;;;;;;;44.58;32.70;;;;;;;11.10;84.07;101196.58;2054707;86;34325;-69
2022/10/17 04:04:28;;;;;;;56.02;36.08;;;;;;;11.08;84.07;101193.07;2057843;86;29458;-68
2022/10/17 04:07:29;;;;;;;52.67;35.38;;;;;;;11.07;84.43;101200.25;2056563;86;27739;-68
2022/10/17 04:10:30;;;;;;;48.70;34.13;;;;;;;11.07;84.55;101204.28;2054601;86;28540;-68
2022/10/17 04:13:32;;;;;;;44.67;32.13;;;;;;;11.06;84.25;101202.52;2055606;86;31413;-69
2022/10/17 04:16:34;;;;;;;52.53;34.65;;;;;;;11.04;84.09;101200.36;2058461;86;33404;-69
2022/10/17 04:19:35;;;;;;;45.60;31.90;;;;;;;11.03;84.33;101206.66;2054939;86;29805;-68
2022/10/17 04:22:36;;;;;;;45.50;32.73;;;;;;;11.04;84.59;101199.02;2054011;86;27836;-68
2022/10/17 04:25:37;;;;;;;49.98;34.75;;;;;;;11.03;84.39;101203.08;2057954;86;29932;-69
2022/10/17 04:28:39;;;;;;;46.02;33.25;;;;;;;11.01;84.36;101200.47;2054556;86;31229;-71
2022/10/17 04:31:40;;;;;;;51.33;35.38;;;;;;;11.01;84.36;101203.60;2051173;86;34123;-69
2022/10/17 04:34:41;;;;;;;58.95;37.58;;;;;;;11.01;84.56;101204.94;2053183;86;29800;-69
2022/10/17 04:37:42;;;;;;;44.63;33.58;;;;;;;11.00;84.46;101205.91;2051083;86;27761;-72
2022/10/17 04:40:44;;;;;;;48.55;34.35;;;;;;;10.97;84.50;101202.84;2053521;86;29818;-71
2022/10/17 04:43:45;;;;;;;45.00;33.98;;;;;;;10.96;84.65;101206.46;2053549;86;31092;-70
2022/10/17 04:46:47;;;;;;;46.98;33.05;;;;;;;10.94;84.48;101210.55;2052129;86;33442;-69
2022/10/17 04:49:48;;;;;;;42.38;32.48;;;;;;;10.91;84.37;101207.12;2052416;86;30394;-69
2022/10/17 04:52:49;;;;;;;55.80;36.70;;;;;;;10.89;84.45;101207.16;2048802;86;27667;-70
2022/10/17 04:55:50;;;;;;;62.62;40.40;;;;;;;10.88;84.83;101202.72;2018498;87;29241;-70
2022/10/17 04:58:52;;;;;;;53.60;36.93;;;;;;;10.89;85.10;101200.93;2056370;85;31043;-70
2022/10/17 05:01:53;;;;;;;59.58;37.65;;;;;;;10.90;85.17;101204.88;2052396;86;33343;-69
2022/10/17 05:04:54;;;;;;;53.13;34.73;;;;;;;10.90;85.12;101204.02;2055104;86;29402;-71
2022/10/17 05:07:56;;;;;;;50.17;34.55;;;;;;;10.90;84.95;101201.34;2053681;86;28015;-70
2022/10/17 05:10:57;;;;;;;47.58;33.40;;;;;;;10.90;84.92;101205.36;2052984;86;29154;-68
2022/10/17 05:14:00;;;;;;;52.90;37.03;;;;;;;10.88;84.77;101204.54;2051793;86;31181;-70
2022/10/17 05:17:02;;;;;;;45.00;33.30;;;;;;;10.86;84.74;101217.12;2054684;86;33000;-70
2022/10/17 05:20:05;;;;;;;51.70;36.80;;;;;;;10.83;84.65;101222.14;2054778;86;30624;-68
2022/10/17 05:23:06;;;;;;;48.70;34.88;;;;;;;10.83;84.89;101226.16;2053489;86;28148;-68
2022/10/17 05:26:07;;;;;;;54.88;38.73;;;;;;;10.84;84.86;101226.53;2054477;86;28857;-68
2022/10/17 05:29:09;;;;;;;52.33;37.23;;;;;;;10.84;84.82;101230.55;2056020;86;31042;-69
2022/10/17 05:32:10;;;;;;;58.45;38.73;;;;;;;10.84;84.88;101239.08;2012230;86;33371;-70
2022/10/17 05:35:11;;;;;;;56.28;34.75;;;;;;;10.86;85.21;101242.59;2053739;86;29381;-66
2022/10/17 05:38:12;;;;;;;56.30;38.28;;;;;;;10.91;85.33;101245.98;2053289;86;27748;-67
2022/10/17 05:41:14;;;;;;;55.88;36.40;;;;;;;10.95;85.46;101250.28;2054122;86;27729;-66
2022/10/17 05:44:15;;;;;;;52.98;36.15;;;;;;;10.99;85.52;101249.73;2055507;86;31061;-66
2022/10/17 05:47:17;;;;;;;55.78;37.78;;;;;;;11.02;85.34;101258.53;2055315;86;34070;-66
2022/10/17 05:50:20;;;;;;;55.03;38.55;;;;;;;11.04;85.22;101262.04;2056615;86;30514;-67
2022/10/17 05:53:21;;;;;;;49.08;35.48;;;;;;;11.07;85.18;101265.95;2051930;86;27697;-66
2022/10/17 05:56:22;;;;;;;57.40;38.50;;;;;;;11.09;85.13;101275.27;2021091;87;29746;-66
2022/10/17 05:59:25;;;;;;;52.85;37.80;;;;;;;11.14;85.25;101274.65;2018975;87;30984;-66
2022/10/17 06:02:26;;;;;;;55.98;36.05;;;;;;;11.20;85.34;101275.75;2022219;87;33776;-65
2022/10/17 06:05:28;;;;;;;53.48;36.50;;;;;;;11.25;85.39;101268.42;2021585;88;29750;-66
2022/10/17 06:08:29;;;;;;;54.53;37.60;;;;;;;11.32;85.50;101274.42;2020405;87;27765;-66
2022/10/17 06:11:31;;;;;;;57.05;37.08;;;;;;;11.38;85.33;101277.34;2020285;88;28713;-65
2022/10/17 06:14:33;;;;;;;56.83;37.83;;;;;;;11.45;85.57;101277.98;2020964;87;32405;-67
2022/10/17 06:17:33;;;;;;;56.37;39.92;;;;;;;11.53;85.74;101281.27;2019907;87;33373;-65
2022/10/17 06:20:35;;;;;;;61.53;39.23;;;;;;;11.60;85.89;101277.41;2019679;87;33689;-66
2022/10/17 06:23:37;;;;;;;61.77;39.67;;;;;;;11.69;86.12;101276.17;2021590;87;27705;-66
2022/10/17 06:26:38;;;;;;;57.62;39.60;;;;;;;11.78;86.33;101278.97;2020973;87;28734;-66
2022/10/17 06:29:40;;;;;;;62.78;40.55;;;;;;;11.86;86.32;101279.08;2021154;87;31047;-65
2022/10/17 06:32:41;;;;;;;66.53;39.08;;;;;;;11.94;86.39;101275.23;2053311;86;33429;-65
2022/10/17 06:35:42;;;;;;;58.80;39.90;;;;;;;12.04;86.51;101283.34;2051249;86;30516;-68
2022/10/17 06:38:43;;;;;;;60.75;39.55;;;;;;;12.16;86.77;101290.05;2050858;86;27654;-66
2022/10/17 06:41:45;;;;;;;56.33;39.03;;;;;;;12.15;86.84;101263.67;2054167;86;29059;-66
2022/10/17 06:44:46;;;;;;;66.55;40.67;;;;;;;12.42;86.96;101288.09;2054169;86;31685;-65
2022/10/17 06:47:48;;;;;;;58.52;40.35;;;;;;;12.57;86.92;101288.82;2049873;86;33188;-65
2022/10/17 06:50:50;;;;;;;60.05;41.45;;;;;;;12.72;86.96;101292.66;2049975;86;29750;-66
2022/10/17 06:53:51;;;;;;;56.35;38.80;;;;;;;12.88;87.06;101290.20;2049652;86;27618;-65
2022/10/17 06:56:52;;;;;;;57.40;37.73;;;;;;;13.07;87.09;101294.28;2053001;86;29875;-67
2022/10/17 06:59:54;;;;;;;55.05;37.48;;;;;;;13.14;87.12;101279.23;2055585;86;31516;-67
2022/10/17 07:02:56;;;;;;;52.33;37.58;;;;;;;13.49;87.13;101296.49;2038895;86;34192;-65
2022/10/17 07:05:58;;;;;;;49.90;36.00;;;;;;;13.89;86.63;101305.87;2052510;86;30466;-66
2022/10/17 07:09:01;;;;;;;58.90;36.13;;;;;;;13.89;86.63;101305.87;2054524;86;27673;-66
2022/10/17 07:12:06;;;;;;;61.58;41.33;;;;;;;14.08;86.38;101313.94;2051210;86;29681;-66
2022/10/17 07:15:08;;;;;;;69.40;44.63;;;;;;;14.26;86.28;101308.15;2053362;86;31058;-66
2022/10/17 07:18:10;;;;;;;62.55;41.92;;;;;;;14.49;86.22;101311.50;2052942;86;33801;-65
2022/10/17 07:21:11;;;;;;;66.05;43.30;;;;;;;14.71;85.59;101315.86;2051710;86;30599;-66
2022/10/17 07:24:13;;;;;;;70.45;46.45;;;;;;;14.92;85.48;101318.42;2051932;86;27798;-68
2022/10/17 07:27:14;;;;;;;72.70;46.85;;;;;;;15.14;85.16;101320.88;2055417;86;28831;-67
2022/10/17 07:30:16;;;;;;;73.52;48.00;;;;;;;15.36;85.18;101312.50;2051588;86;31286;-67
2022/10/17 07:33:18;;;;;;;66.90;45.05;;;;;;;15.60;85.11;101314.84;2052483;86;32989;-67
2022/10/17 07:36:19;;;;;;;72.20;43.90;;;;;;;15.82;84.62;101317.69;2043188;86;30506;-67
2022/10/17 07:39:21;;;;;;;57.73;40.33;;;;;;;16.02;84.20;101324.25;2054367;86;27861;-66
2022/10/17 07:42:23;;;;;;;61.83;40.85;;;;;;;16.24;83.90;101317.63;2054166;86;28672;-66
2022/10/17 07:45:26;;;;;;;57.93;39.75;;;;;;;16.44;83.56;101325.08;2051303;86;31391;-67
2022/10/17 07:48:28;;;;;;;56.60;36.40;;;;;;;16.64;83.50;101328.83;2053616;86;34196;-67
2022/10/17 07:51:29;;;;;;;48.75;35.30;;;;;;;16.84;82.97;101322.72;2053143;86;30537;-67
2022/10/17 07:54:30;;;;;;;44.30;33.58;;;;;;;17.05;82.64;101322.43;2052130;86;28396;-67
2022/10/17 07:57:31;;;;;;;49.00;33.28;;;;;;;17.25;81.94;101322.09;2054514;86;29514;-67
2022/10/17 08:00:34;;;;;;;40.15;28.65;;;;;;;17.49;81.97;101322.02;2054536;86;31442;-67
2022/10/17 08:03:36;;;;;;;39.90;28.17;;;;;;;17.65;81.68;101325.97;2050130;86;32921;-67
2022/10/17 08:06:37;;;;;;;37.10;27.42;;;;;;;17.82;81.30;101326.27;2047534;86;29288;-67
2022/10/17 08:09:39;;;;;;;33.05;25.65;;;;;;;17.98;80.68;101323.00;2019919;88;27650;-67
2022/10/17 08:12:40;;;;;;;36.23;26.90;;;;;;;18.12;80.48;101318.01;2051065;86;29897;-67
2022/10/17 08:15:42;;;;;;;33.58;26.23;;;;;;;18.22;80.15;101321.87;2052216;86;32368;-68
2022/10/17 08:18:43;;;;;;;29.55;23.15;;;;;;;18.33;79.94;101313.03;2053755;86;35210;-68
2022/10/17 08:21:45;;;;;;;34.03;24.10;;;;;;;18.43;79.57;101318.73;2050681;86;29854;-67
2022/10/17 08:24:47;;;;;;;27.17;21.48;;;;;;;18.50;79.13;101315.11;2050441;86;27899;-67
2022/10/17 08:27:48;;;;;;;26.12;21.10;;;;;;;18.58;78.18;101318.16;2052878;86;28894;-67
2022/10/17 08:30:50;;;;;;;30.48;23.15;;;;;;;18.66;78.35;101317.17;2054856;86;31207;-67
2022/10/17 08:33:51;;;;;;;25.65;20.92;;;;;;;18.77;77.93;101315.09;2054458;86;33836;-67
2022/10/17 08:36:52;;;;;;;26.65;22.32;;;;;;;18.87;77.74;101315.30;2055667;86;29743;-66
2022/10/17 08:39:55;;;;;;;28.92;21.93;;;;;;;18.98;77.15;101316.85;2051657;86;28227;-68
2022/10/17 08:43:02;;;;;;;29.77;21.97;;;;;;;19.10;76.75;101315.61;2057076;86;29135;-65
2022/10/17 08:46:05;;;;;;;24.18;20.15;;;;;;;19.19;75.51;101314.98;2052848;86;31086;-67
2022/10/17 08:49:38;;;;;;;25.95;20.70;;;;;;;19.27;75.66;101289.48;2052698;86;32990;-67
2022/10/17 08:52:53;;;;;;;28.70;21.05;;;;;;;19.27;75.66;101289.48;2007439;86;30147;-69
2022/10/17 08:55:55;;;;;;;26.00;20.00;;;;;;;19.52;75.17;101308.14;1997936;88;27991;-64
2022/10/17 08:58:57;;;;;;;26.70;20.60;;;;;;;19.64;75.04;101304.16;1981901;88;29052;-67
2022/10/17 09:02:36;;;;;;;25.37;20.80;;;;;;;19.74;74.76;101303.38;1979711;87;32254;-69
2022/10/17 09:06:01;;;;;;;25.10;20.65;;;;;;;19.83;74.46;101300.48;1982500;87;33089;-67
2022/10/17 09:09:40;;;;;;;24.60;20.68;;;;;;;20.06;73.82;101301.16;1974474;89;30557;-70
2022/10/17 09:12:53;;;;;;;22.02;19.45;;;;;;;20.06;73.82;101301.16;1964308;89;27622;-71
2022/10/17 09:16:24;;;;;;;23.45;19.20;;;;;;;20.16;73.05;101293.57;1965111;89;29256;-75
2022/10/17 09:19:40;;;;;;;27.90;19.87;;;;;;;20.25;72.77;101302.90;1931701;90;31139;-65
2022/10/17 09:22:50;;;;;;;23.83;18.90;;;;;;;20.33;72.31;101297.73;1933088;90;33805;-69
2022/10/17 09:25:58;;;;;;;25.27;19.25;;;;;;;20.42;72.05;101304.84;1899735;90;29398;-68
2022/10/17 09:29:00;;;;;;;26.45;18.48;;;;;;;20.49;71.72;101302.91;1946050;90;28343;-66
2022/10/17 09:32:06;;;;;;;22.20;19.23;;;;;;;20.57;71.85;101301.44;1975622;88;30845;-68
2022/10/17 09:35:14;;;;;;;27.15;19.15;;;;;;;20.63;71.54;101305.92;1978100;88;31094;-68
2022/10/17 09:38:19;;;;;;;23.95;19.42;;;;;;;20.69;70.48;101298.27;1971176;88;32438;-67
2022/10/17 09:41:39;;;;;;;24.70;19.10;;;;;;;20.74;70.02;101291.99;1968103;88;29566;-66
2022/10/17 09:44:46;;;;;;;23.57;19.05;;;;;;;20.80;69.21;101294.25;1970812;87;27778;-66
2022/10/17 09:47:56;;;;;;;24.32;18.40;;;;;;;20.82;69.46;101292.80;2012287;87;28262;-67
2022/10/17 09:51:00;;;;;;;32.73;19.40;;;;;;;20.86;69.38;101292.43;2002676;87;31055;-64
2022/10/17 09:54:06;;;;;;;22.52;18.37;;;;;;;20.90;69.55;101288.48;1986376;87;33686;-67
2022/10/17 09:57:10;;;;;;;22.50;19.73;;;;;;;20.95;68.89;101288.98;2009115;87;29436;-70
2022/10/17 10:00:26;;;;;;;22.10;17.35;;;;;;;21.00;68.86;101290.48;1995081;86;27793;-63
2022/10/17 10:03:29;;;;;;;20.72;17.55;;;;;;;21.04;68.31;101301.02;1989098;87;29186;-67
2022/10/17 10:06:31;;;;;;;22.90;19.23;;;;;;;21.07;68.53;101297.20;2038751;86;31094;-69
2022/10/17 10:09:35;;;;;;;24.12;18.95;;;;;;;21.09;67.95;101290.63;2027411;86;33102;-65
2022/10/17 10:12:38;;;;;;;29.50;19.77;;;;;;;21.13;67.93;101288.52;2020312;86;29360;-62
2022/10/17 10:18:46;;;;;;;21.17;16.87;;;;;;;21.24;67.83;101291.29;2033307;87;29492;-65
2022/10/17 10:21:58;;;;;;;24.40;17.52;;;;;;;21.31;67.51;101288.06;2052076;84;31067;-65
2022/10/17 10:25:15;;;;;;;18.92;15.20;;;;;;;21.34;65.90;101281.89;2033600;86;33881;-64
2022/10/17 10:28:17;;;;;;;21.55;16.77;;;;;;;21.38;66.46;101289.32;2022421;87;29371;-66
2022/10/17 10:31:33;;;;;;;20.85;17.42;;;;;;;21.45;66.77;101293.27;2011574;86;27691;-66
2022/10/17 10:34:36;;;;;;;19.02;15.72;;;;;;;21.50;66.25;101291.56;2031062;86;28778;-67
2022/10/17 10:37:42;;;;;;;25.68;16.95;;;;;;;21.54;65.99;101292.55;2028614;87;31899;-66
2022/10/17 10:40:49;;;;;;;20.57;16.40;;;;;;;21.60;66.31;101291.66;2026463;86;32986;-68
2022/10/17 10:43:51;;;;;;;18.40;14.75;;;;;;;21.65;65.66;101282.66;2032036;86;30201;-69
2022/10/17 10:47:19;;;;;;;19.32;15.30;;;;;;;21.69;65.29;101280.91;2035033;85;28411;-67
2022/10/17 10:50:38;;;;;;;21.97;15.72;;;;;;;21.74;65.23;101279.20;2030540;86;29624;-65
2022/10/17 10:53:52;;;;;;;19.87;14.25;;;;;;;21.79;64.21;101277.45;2034431;86;31458;-68
2022/10/17 10:56:58;;;;;;;16.48;13.70;;;;;;;21.83;65.11;101282.52;2031759;87;34436;-67
2022/10/17 11:00:11;;;;;;;17.77;13.88;;;;;;;21.90;64.28;101275.21;2031555;86;30253;-70
2022/10/17 11:03:18;;;;;;;17.35;13.25;;;;;;;21.95;63.95;101277.04;2006884;87;27722;-69
2022/10/17 11:06:25;;;;;;;16.12;14.43;;;;;;;21.99;64.43;101268.50;2025518;86;28649;-67
2022/10/17 11:09:52;;;;;;;19.52;15.35;;;;;;;22.04;63.85;101259.92;2022000;87;31046;-71
2022/10/17 11:13:17;;;;;;;20.35;14.13;;;;;;;22.11;64.25;101267.09;2041192;86;34392;-71
2022/10/17 11:16:41;;;;;;;19.40;13.72;;;;;;;22.15;64.19;101269.44;2053631;84;30581;-70
2022/10/17 11:20:04;;;;;;;17.60;15.08;;;;;;;22.19;63.68;101258.27;2037149;86;27701;-70
2022/10/17 11:23:20;;;;;;;17.57;14.83;;;;;;;22.25;63.65;101259.13;1990098;87;28862;-69
2022/10/17 11:26:30;;;;;;;23.07;17.27;;;;;;;22.30;62.88;101252.28;1985521;87;31309;-74
2022/10/17 11:29:35;;;;;;;18.05;14.10;;;;;;;22.35;62.70;101253.25;2032769;86;33002;-71
2022/10/17 11:32:47;;;;;;;15.55;13.88;;;;;;;22.42;62.74;101251.75;2024235;87;30251;-77
2022/10/17 11:35:52;;;;;;;18.70;14.55;;;;;;;22.48;62.58;101251.75;2040193;86;27809;-74
2022/10/17 11:39:08;;;;;;;16.48;13.65;;;;;;;22.54;62.51;101245.75;2018223;87;28683;-75
2022/10/17 11:42:13;;;;;;;18.27;13.60;;;;;;;22.61;62.75;101248.33;2017338;86;31075;-75
2022/10/17 11:45:18;;;;;;;17.30;15.40;;;;;;;22.69;61.97;101240.84;2018726;87;33990;-75
2022/10/17 11:48:28;;;;;;;16.37;14.25;;;;;;;22.75;61.44;101244.91;2016857;87;30159;-75
2022/10/17 11:51:35;;;;;;;19.50;15.08;;;;;;;22.81;61.69;101240.29;2017047;87;27790;-74
2022/10/17 11:54:47;;;;;;;20.17;15.63;;;;;;;22.88;61.84;101235.16;2007592;86;29556;-76
2022/10/17 11:58:20;;;;;;;24.80;18.62;;;;;;;22.95;61.72;101236.84;2009149;87;30510;-76
2022/10/17 12:01:39;;;;;;;20.35;16.00;;;;;;;23.02;61.20;101229.83;2016504;87;34003;-76
2022/10/17 12:05:05;;;;;;;18.10;14.00;;;;;;;23.09;60.95;101228.78;2009286;86;29356;-75
2022/10/17 12:08:45;;;;;;;16.10;13.75;;;;;;;23.14;60.63;101221.05;2053035;86;27743;-76
2022/10/17 12:11:59;;;;;;;20.32;14.47;;;;;;;23.21;60.95;101220.91;2051897;86;28705;-75
2022/10/17 12:15:25;;;;;;;16.63;14.47;;;;;;;23.24;60.75;101216.55;2054574;86;31976;-76
2022/10/17 12:18:29;;;;;;;21.42;16.93;;;;;;;23.26;59.67;101216.40;2051840;86;33175;-76
2022/10/17 12:21:55;;;;;;;;;;;;;;;23.31;60.28;101211.39;2057844;86;28909;-74
2022/10/17 12:25:02;;;;;;;15.78;14.13;;;;;;;23.34;59.71;101208.36;2036822;86;27841;-76
2022/10/17 12:28:14;;;;;;;18.15;15.75;;;;;;;23.33;59.48;101211.61;2051049;86;29645;-75
2022/10/17 12:31:24;;;;;;;19.12;15.10;;;;;;;23.34;59.46;101209.73;2050929;86;31090;-75
2022/10/17 12:34:26;;;;;;;17.95;14.18;;;;;;;23.36;59.42;101204.50;2053459;86;33084;-75
2022/10/17 12:37:54;;;;;;;19.60;14.33;;;;;;;23.38;58.95;101208.97;2054355;86;29363;-74
2022/10/17 12:40:56;;;;;;;18.60;13.00;;;;;;;23.37;59.35;101198.52;2054629;86;27713;-76
2022/10/17 12:43:58;;;;;;;16.60;14.38;;;;;;;23.35;58.60;101200.04;2053989;86;28715;-76
2022/10/17 12:47:11;;;;;;;19.32;14.63;;;;;;;23.39;58.78;101206.09;2052281;86;31844;-75
2022/10/17 12:51:01;;;;;;;14.53;12.67;;;;;;;23.40;58.59;101195.52;2050401;86;33234;-75
2022/10/17 12:54:14;;;;;;;19.95;13.78;;;;;;;23.45;58.21;101199.20;2043191;86;29335;-76
2022/10/17 12:57:39;;;;;;;22.25;14.83;;;;;;;23.44;58.44;101196.98;2045910;86;27573;-76
2022/10/17 13:00:45;;;;;;;19.23;13.83;;;;;;;23.45;57.89;101200.08;1978894;88;28704;-76
2022/10/17 13:03:48;;;;;;;14.58;12.73;;;;;;;23.44;58.58;101200.20;1939265;90;31894;-76
2022/10/17 13:06:55;;;;;;;16.45;14.23;;;;;;;23.41;58.08;101201.34;1993604;88;33101;-75
2022/10/17 13:10:03;;;;;;;15.43;12.65;;;;;;;23.39;57.90;101199.77;1961419;89;30038;-76
2022/10/17 13:13:14;;;;;;;19.92;14.83;;;;;;;23.37;58.41;101202.63;1951503;89;27882;-76
2022/10/17 13:16:36;;;;;;;18.92;14.85;;;;;;;23.35;58.17;101200.04;1967442;87;28722;-75
2022/10/17 13:19:43;;;;;;;16.05;13.55;;;;;;;23.32;57.57;101201.67;1865047;93;31945;-75
2022/10/17 13:22:45;;;;;;;17.70;13.78;;;;;;;23.32;57.74;101195.35;1870299;93;33909;-75
2022/10/17 13:25:46;;;;;;;15.65;13.93;;;;;;;23.30;58.16;101194.11;1869589;93;29359;-76
2022/10/17 13:29:13;;;;;;;20.70;16.73;;;;;;;23.30;58.06;101200.09;1883703;93;27823;-75
2022/10/17 13:32:15;;;;;;;17.25;15.32;;;;;;;23.29;58.04;101195.63;1882956;93;28714;-75
2022/10/17 13:35:30;;;;;;;18.32;15.15;;;;;;;23.27;58.46;101193.01;1880356;93;31440;-74
2022/10/17 13:38:32;;;;;;;;;;;;;;;23.26;58.58;101191.80;1916814;91;33988;-74
2022/10/17 13:41:34;;;;;;;23.07;19.10;;;;;;;23.23;58.79;101192.94;1941637;89;29519;-75
2022/10/17 13:44:35;;;;;;;22.40;17.17;;;;;;;23.17;59.00;101179.78;1916700;91;27706;-75
2022/10/17 13:47:38;;;;;;;26.42;20.30;;;;;;;23.16;59.09;101175.31;1932038;91;28704;-77
2022/10/17 13:50:41;;;;;;;24.67;18.35;;;;;;;23.12;59.02;101176.09;1909261;92;31260;-75
2022/10/17 13:53:43;;;;;;;15.65;13.80;;;;;;;23.08;59.03;101183.34;1936701;91;33006;-76
2022/10/17 13:56:45;;;;;;;21.25;16.32;;;;;;;23.00;59.10;101175.31;1994426;86;29721;-76
2022/10/17 13:59:53;;;;;;;18.67;16.00;;;;;;;23.00;59.05;101184.03;2026709;86;27867;-76
2022/10/17 14:02:55;;;;;;;25.77;16.70;;;;;;;22.98;59.43;101188.24;2028318;86;29553;-76
2022/10/17 14:06:14;;;;;;;19.60;16.85;;;;;;;22.94;59.54;101185.41;2008632;86;30509;-75
2022/10/17 14:09:27;;;;;;;22.60;18.50;;;;;;;22.91;59.55;101182.97;2032124;87;32397;-76
2022/10/17 14:12:29;;;;;;;33.13;25.55;;;;;;;22.87;59.51;101182.36;2023864;86;29438;-76
2022/10/17 14:15:33;;;;;;;22.02;18.15;;;;;;;22.83;59.66;101182.28;2030580;86;28071;-75